createdAt,value
2018-05-16T00:01:56.615Z,70.39
2018-05-16T00:04:59.942Z,69.17
2018-05-16T00:08:03.243Z,68.40
2018-05-16T00:11:07.457Z,67.76
2018-05-16T00:14:11.670Z,67.96
2018-05-16T00:17:14.971Z,67.92
2018-05-16T00:20:19.129Z,67.94
2018-05-16T00:23:22.453Z,69.37
2018-05-16T00:26:25.816Z,70.36
2018-05-16T00:29:29.137Z,70.85
2018-05-16T00:32:32.485Z,71.11
2018-05-16T00:35:35.796Z,71.57
2018-05-16T00:38:39.865Z,71.88
2018-05-16T00:41:43.219Z,72.62
2018-05-16T00:44:46.559Z,73.04
2018-05-16T00:47:49.908Z,73.07
2018-05-16T00:51:10.994Z,73.13
2018-05-16T00:54:14.304Z,73.31
2018-05-16T00:57:18.501Z,74.03
2018-05-16T01:00:21.946Z,74.20
2018-05-16T01:03:25.301Z,74.47
2018-05-16T01:06:28.629Z,75.03
2018-05-16T01:09:32.103Z,75.07
2018-05-16T01:12:36.734Z,74.91
2018-05-16T01:15:40.838Z,74.84
2018-05-16T01:18:44.212Z,73.93
2018-05-16T01:21:47.575Z,73.29
2018-05-16T01:24:51.014Z,73.10
2018-05-16T01:27:54.359Z,72.91
2018-05-16T01:30:57.726Z,73.16
2018-05-16T01:34:01.838Z,73.48
2018-05-16T01:37:05.181Z,73.67
2018-05-16T01:40:08.524Z,74.05
2018-05-16T01:43:13.345Z,74.40
2018-05-16T01:46:16.741Z,74.82
2018-05-16T01:49:20.787Z,75.12
2018-05-16T01:52:24.884Z,75.45
2018-05-16T01:55:28.262Z,75.51
2018-05-16T01:58:31.634Z,74.60
2018-05-16T02:01:34.952Z,75.07
2018-05-16T02:04:38.305Z,75.47
2018-05-16T02:07:41.654Z,75.40
2018-05-16T02:10:44.965Z,74.64
2018-05-16T02:13:49.151Z,74.96
2018-05-16T02:16:52.561Z,75.85
2018-05-16T02:19:55.880Z,76.13
2018-05-16T02:22:59.250Z,76.29
2018-05-16T02:26:02.569Z,76.31
2018-05-16T02:29:07.397Z,76.66
2018-05-16T02:32:11.601Z,76.74
2018-05-16T02:35:15.029Z,76.81
2018-05-16T02:38:19.192Z,76.87
2018-05-16T02:41:22.611Z,77.16
2018-05-16T02:44:26.018Z,76.72
2018-05-16T02:47:29.378Z,76.67
2018-05-16T02:50:32.800Z,76.63
2018-05-16T02:53:36.218Z,76.89
2018-05-16T02:56:39.582Z,77.01
2018-05-16T02:59:42.916Z,77.06
2018-05-16T03:02:46.277Z,77.18
2018-05-16T03:05:49.789Z,77.02
2018-05-16T03:08:53.171Z,76.94
2018-05-16T03:11:56.582Z,77.33
2018-05-16T03:14:59.927Z,77.43
2018-05-16T03:18:03.282Z,77.53
2018-05-16T03:21:06.625Z,77.25
2018-05-16T03:24:09.985Z,76.28
2018-05-16T03:27:13.414Z,75.63
2018-05-16T03:30:17.533Z,75.90
2018-05-16T03:33:20.866Z,76.06
2018-05-16T03:36:24.241Z,76.27
2018-05-16T03:39:27.552Z,76.04
2018-05-16T03:42:30.901Z,75.90
2018-05-16T03:45:34.963Z,76.25
2018-05-16T03:48:38.335Z,77.35
2018-05-16T03:51:41.635Z,78.42
2018-05-16T03:54:45.021Z,79.33
2018-05-16T04:01:46.927Z,81.63
2018-05-16T04:04:50.241Z,82.06
2018-05-16T04:07:53.606Z,82.56
2018-05-16T04:10:56.920Z,82.64
2018-05-16T04:14:00.263Z,82.82
2018-05-16T04:17:03.610Z,82.30
2018-05-16T04:20:07.038Z,80.83
2018-05-16T04:23:10.442Z,78.96
2018-05-16T04:26:13.848Z,77.13
2018-05-16T04:29:17.161Z,76.51
2018-05-16T04:32:21.278Z,75.72
2018-05-16T04:35:25.400Z,75.19
2018-05-16T04:38:29.583Z,74.83
2018-05-16T04:41:32.893Z,74.35
2018-05-16T04:44:37.011Z,73.17
2018-05-16T04:47:41.102Z,72.51
2018-05-16T04:50:44.456Z,71.75
2018-05-16T04:53:47.792Z,70.90
2018-05-16T04:56:51.154Z,70.01
2018-05-16T04:59:54.446Z,69.33
2018-05-16T05:02:57.833Z,68.67
2018-05-16T05:06:01.192Z,68.00
2018-05-16T05:09:04.579Z,67.48
2018-05-16T05:12:07.985Z,67.28
2018-05-16T05:15:11.337Z,66.65
2018-05-16T05:18:14.690Z,66.41
2018-05-16T05:21:18.869Z,66.37
2018-05-16T05:24:22.210Z,66.09
2018-05-16T05:27:26.325Z,65.94
2018-05-16T05:30:30.401Z,66.05
2018-05-16T05:33:33.754Z,66.05
2018-05-16T05:36:37.095Z,65.65
2018-05-16T05:39:40.447Z,65.40
2018-05-16T05:42:43.777Z,65.16
2018-05-16T05:45:47.198Z,65.11
2018-05-16T05:48:50.536Z,64.74
2018-05-16T05:51:53.998Z,64.58
2018-05-16T05:54:57.393Z,64.16
2018-05-16T05:58:00.789Z,63.92
2018-05-16T06:01:04.165Z,63.93
2018-05-16T06:04:07.526Z,64.08
2018-05-16T06:07:10.843Z,63.73
2018-05-16T06:10:14.190Z,63.04
2018-05-16T06:13:18.294Z,63.92
2018-05-16T06:16:21.652Z,63.77
2018-05-16T06:19:25.133Z,63.49
2018-05-16T06:22:28.434Z,62.99
2018-05-16T06:25:31.763Z,60.42
2018-05-16T06:28:35.133Z,62.13
2018-05-16T06:31:38.462Z,60.99
2018-05-16T06:34:41.868Z,62.81
2018-05-16T06:37:45.149Z,63.65
2018-05-16T06:40:48.521Z,62.94
2018-05-16T06:43:51.959Z,65.58
2018-05-16T06:46:55.350Z,62.58
2018-05-16T06:49:58.669Z,64.80
2018-05-16T06:53:02.853Z,64.84
2018-05-16T06:56:06.142Z,65.50
2018-05-16T06:59:09.501Z,66.35
2018-05-16T07:02:12.831Z,65.38
2018-05-16T07:05:16.177Z,62.58
2018-05-16T07:08:20.383Z,62.33
2018-05-16T07:11:24.502Z,62.26
2018-05-16T07:14:28.585Z,62.83
2018-05-16T07:17:31.949Z,61.74
2018-05-16T07:20:35.293Z,59.40
2018-05-16T07:23:39.511Z,60.14
2018-05-16T07:26:42.905Z,60.20
2018-05-16T07:29:46.297Z,58.39
2018-05-16T07:32:49.616Z,56.96
2018-05-16T07:35:53.737Z,56.81
2018-05-16T07:38:57.921Z,57.07
2018-05-16T07:42:01.263Z,56.92
2018-05-16T07:45:04.640Z,54.46
2018-05-16T07:48:08.775Z,54.93
2018-05-16T07:51:12.202Z,54.82
2018-05-16T07:54:15.483Z,53.95
2018-05-16T07:57:18.811Z,53.15
2018-05-16T08:00:22.161Z,53.49
2018-05-16T08:03:25.478Z,53.56
2018-05-16T08:06:28.841Z,54.30
2018-05-16T08:09:32.930Z,52.61
2018-05-16T08:12:36.239Z,53.07
2018-05-16T08:15:39.553Z,53.10
2018-05-16T08:18:42.888Z,53.04
2018-05-16T08:21:46.285Z,53.15
2018-05-16T08:24:50.370Z,52.26
2018-05-16T08:27:53.720Z,50.06
2018-05-16T08:30:57.098Z,51.11
2018-05-16T08:34:00.526Z,49.91
2018-05-16T08:37:03.914Z,48.44
2018-05-16T08:40:07.237Z,50.24
2018-05-16T08:43:11.365Z,49.15
2018-05-16T08:46:14.678Z,49.85
2018-05-16T08:49:18.005Z,49.83
2018-05-16T08:52:21.323Z,49.23
2018-05-16T08:55:24.657Z,50.79
2018-05-16T08:58:28.089Z,50.85
2018-05-16T09:01:31.402Z,51.90
2018-05-16T09:04:35.526Z,52.82
2018-05-16T09:07:38.847Z,52.22
2018-05-16T09:10:42.183Z,52.95
2018-05-16T09:13:45.674Z,53.52
2018-05-16T09:16:48.961Z,51.86
2018-05-16T09:19:52.347Z,50.89
2018-05-16T09:22:55.680Z,52.59
2018-05-16T09:25:58.996Z,54.41
2018-05-16T09:29:02.338Z,54.54
2018-05-16T09:32:05.664Z,55.22
2018-05-16T09:35:09.001Z,55.20
2018-05-16T09:38:13.192Z,54.84
2018-05-16T09:41:16.575Z,54.86
2018-05-16T09:44:19.896Z,56.40
2018-05-16T09:47:23.261Z,53.87
2018-05-16T09:50:27.484Z,55.61
2018-05-16T09:53:30.811Z,55.16
2018-05-16T09:56:34.135Z,53.29
2018-05-16T09:59:37.462Z,53.43
2018-05-16T10:02:40.789Z,52.64
2018-05-16T10:05:44.133Z,51.97
2018-05-16T10:08:47.457Z,52.23
2018-05-16T10:11:50.790Z,51.78
2018-05-16T10:14:54.114Z,52.69
2018-05-16T10:17:57.438Z,51.72
2018-05-16T10:21:00.832Z,52.78
2018-05-16T10:24:04.453Z,51.42
2018-05-16T10:27:07.908Z,51.63
2018-05-16T10:30:11.207Z,50.38
2018-05-16T10:33:14.566Z,51.92
2018-05-16T10:36:17.895Z,53.02
2018-05-16T10:39:21.217Z,52.22
2018-05-16T10:42:24.559Z,51.69
2018-05-16T10:45:27.847Z,51.06
2018-05-16T10:48:32.005Z,49.46
2018-05-16T10:51:35.623Z,50.82
2018-05-16T10:54:39.514Z,49.88
2018-05-16T10:57:42.845Z,49.39
2018-05-16T11:00:46.183Z,48.84
2018-05-16T11:03:50.284Z,49.13
2018-05-16T11:06:54.378Z,46.60
2018-05-16T11:09:57.717Z,45.40
2018-05-16T11:13:01.770Z,44.89
2018-05-16T11:16:05.143Z,43.72
2018-05-16T11:19:08.487Z,42.63
2018-05-16T11:22:11.796Z,41.35
2018-05-16T11:25:15.222Z,43.95
2018-05-16T11:28:18.585Z,41.99
2018-05-16T11:31:21.991Z,42.40
2018-05-16T11:34:25.322Z,42.00
2018-05-16T11:37:28.651Z,43.88
2018-05-16T11:40:32.052Z,42.83
2018-05-16T11:43:35.494Z,42.88
2018-05-16T11:46:39.577Z,42.94
2018-05-16T11:49:42.978Z,40.92
2018-05-16T11:52:46.301Z,42.00
2018-05-16T11:55:50.505Z,41.17
2018-05-16T11:58:54.688Z,40.49
2018-05-16T12:01:58.002Z,43.60
2018-05-16T12:05:01.475Z,40.69
2018-05-16T12:08:05.537Z,40.06
2018-05-16T12:11:09.717Z,39.87
2018-05-16T12:14:12.996Z,39.86
2018-05-16T12:17:16.301Z,40.98
2018-05-16T12:20:19.772Z,41.47
2018-05-16T12:23:23.088Z,38.98
2018-05-16T12:26:26.497Z,41.37
2018-05-16T12:29:30.855Z,42.23
2018-05-16T12:32:35.049Z,42.29
2018-05-16T12:35:38.438Z,42.77
2018-05-16T12:38:41.855Z,43.05
2018-05-16T12:41:45.184Z,42.15
2018-05-16T12:44:48.531Z,41.97
2018-05-16T12:47:51.934Z,42.38
2018-05-16T12:50:55.338Z,40.98
2018-05-16T12:54:00.262Z,36.92
2018-05-16T12:57:03.670Z,36.24
2018-05-16T13:00:07.006Z,38.91
2018-05-16T13:03:10.352Z,37.85
2018-05-16T13:06:13.699Z,40.14
2018-05-16T13:09:17.105Z,38.17
2018-05-16T13:12:20.441Z,37.42
2018-05-16T13:15:24.536Z,37.51
2018-05-16T13:18:27.945Z,38.87
2018-05-16T13:21:31.310Z,40.37
2018-05-16T13:24:35.362Z,39.64
2018-05-16T13:27:38.687Z,39.01
2018-05-16T13:30:42.804Z,40.48
2018-05-16T13:33:46.979Z,38.98
2018-05-16T13:36:50.313Z,38.65
2018-05-16T13:39:54.500Z,39.49
2018-05-16T13:42:58.565Z,37.79
2018-05-16T13:46:02.061Z,38.99
2018-05-16T13:49:05.392Z,38.38
2018-05-16T13:52:08.714Z,36.72
2018-05-16T13:55:12.027Z,37.57
2018-05-16T13:58:15.368Z,37.98
2018-05-16T14:01:18.668Z,37.65
2018-05-16T14:04:22.030Z,39.83
2018-05-16T14:07:25.347Z,37.44
2018-05-16T14:10:28.790Z,39.87
2018-05-16T14:13:32.149Z,38.27
2018-05-16T14:16:35.478Z,38.48
2018-05-16T14:19:38.865Z,37.46
2018-05-16T14:22:42.184Z,35.94
2018-05-16T14:25:45.518Z,36.00
2018-05-16T14:28:48.872Z,36.24
2018-05-16T14:31:52.204Z,36.32
2018-05-16T14:34:55.538Z,35.79
2018-05-16T14:37:58.871Z,37.23
2018-05-16T14:41:02.990Z,36.17
2018-05-16T14:44:07.185Z,35.59
2018-05-16T14:47:10.529Z,35.58
2018-05-16T14:50:13.878Z,36.53
2018-05-16T14:53:17.200Z,37.48
2018-05-16T14:56:21.315Z,38.14
2018-05-16T14:59:25.501Z,40.08
2018-05-16T15:02:28.801Z,40.32
2018-05-16T15:05:33.023Z,39.82
2018-05-16T15:08:36.418Z,39.77
2018-05-16T15:11:39.763Z,40.11
2018-05-16T15:14:43.095Z,39.57
2018-05-16T15:17:46.453Z,38.85
2018-05-16T15:20:49.820Z,39.26
2018-05-16T15:23:53.897Z,38.79
2018-05-16T15:26:57.189Z,38.15
2018-05-16T15:30:00.596Z,37.07
2018-05-16T15:33:04.004Z,37.80
2018-05-16T15:36:08.068Z,38.10
2018-05-16T15:39:11.402Z,37.23
2018-05-16T15:42:14.801Z,37.07
2018-05-16T15:45:18.169Z,37.06
2018-05-16T15:48:21.497Z,37.89
2018-05-16T15:51:24.852Z,38.30
2018-05-16T15:54:28.309Z,37.19
2018-05-16T15:57:31.700Z,37.43
2018-05-16T16:00:35.052Z,37.58
2018-05-16T16:03:38.347Z,36.73
2018-05-16T16:06:41.741Z,37.34
2018-05-16T16:09:45.039Z,35.87
2018-05-16T16:12:48.398Z,35.49
2018-05-16T16:15:52.550Z,35.29
2018-05-16T16:18:55.890Z,34.66
2018-05-16T16:21:59.247Z,34.47
2018-05-16T16:25:02.560Z,34.50
2018-05-16T16:28:05.904Z,34.38
2018-05-16T16:31:10.000Z,34.58
2018-05-16T16:34:13.337Z,35.27
2018-05-16T16:37:16.788Z,34.55
2018-05-16T16:40:20.187Z,34.88
2018-05-16T16:43:23.505Z,35.08
2018-05-16T16:46:27.634Z,34.21
2018-05-16T16:49:31.011Z,34.46
2018-05-16T16:52:35.119Z,35.13
2018-05-16T16:55:39.239Z,34.87
2018-05-16T16:58:43.332Z,34.95
2018-05-16T17:01:46.687Z,34.93
2018-05-16T17:04:50.084Z,35.66
2018-05-16T17:07:53.446Z,36.02
2018-05-16T17:10:57.634Z,35.55
2018-05-16T17:14:01.020Z,36.78
2018-05-16T17:17:04.365Z,38.74
2018-05-16T17:20:08.484Z,40.81
2018-05-16T17:23:11.824Z,41.66
2018-05-16T17:26:15.171Z,43.24
2018-05-16T17:29:19.245Z,44.06
2018-05-16T17:32:22.603Z,45.32
2018-05-16T17:35:25.960Z,45.80
2018-05-16T17:38:30.072Z,46.61
2018-05-16T17:41:33.447Z,47.52
2018-05-16T17:44:36.779Z,48.55
2018-05-16T17:47:40.882Z,48.72
2018-05-16T17:50:44.973Z,49.19
2018-05-16T17:53:48.455Z,48.11
2018-05-16T17:56:52.618Z,48.41
2018-05-16T17:59:56.857Z,50.85
2018-05-16T18:03:00.183Z,51.77
2018-05-16T18:06:03.559Z,52.11
2018-05-16T18:09:06.898Z,51.99
2018-05-16T18:12:10.249Z,51.75
2018-05-16T18:15:31.695Z,51.06
2018-05-16T18:18:35.113Z,51.42
2018-05-16T18:21:38.458Z,52.68
2018-05-16T18:24:41.789Z,52.84
2018-05-16T18:27:45.132Z,53.24
2018-05-16T18:30:49.243Z,53.24
2018-05-16T18:33:53.424Z,54.23
2018-05-16T18:36:56.769Z,54.98
2018-05-16T18:40:00.086Z,55.51
2018-05-16T18:43:03.528Z,56.11
2018-05-16T18:46:07.220Z,56.39
2018-05-16T18:49:10.700Z,56.56
2018-05-16T18:52:14.129Z,57.18
2018-05-16T18:55:17.474Z,57.67
2018-05-16T18:58:20.830Z,57.92
2018-05-16T19:01:24.190Z,58.26
2018-05-16T19:04:27.626Z,59.19
2018-05-16T19:07:31.000Z,59.42
2018-05-16T19:10:34.361Z,60.11
2018-05-16T19:13:37.686Z,60.34
2018-05-16T19:16:41.105Z,60.64
2018-05-16T19:19:44.520Z,61.04
2018-05-16T19:22:47.861Z,60.85
2018-05-16T19:25:51.153Z,61.18
2018-05-16T19:28:54.517Z,61.58
2018-05-16T19:31:58.629Z,62.12
2018-05-16T19:35:02.867Z,62.49
2018-05-16T19:38:06.220Z,62.25
2018-05-16T19:41:09.552Z,63.25
2018-05-16T19:44:13.643Z,63.56
2018-05-16T19:47:17.035Z,64.16
2018-05-16T19:50:20.414Z,64.45
2018-05-16T19:53:23.834Z,65.24
2018-05-16T19:56:27.216Z,65.45
2018-05-16T19:59:30.619Z,66.21
2018-05-16T20:02:33.970Z,66.50
2018-05-16T20:05:37.329Z,66.99
2018-05-16T20:08:40.661Z,67.37
2018-05-16T20:11:44.044Z,67.99
2018-05-16T20:14:47.448Z,68.25
2018-05-16T20:17:51.557Z,68.65
2018-05-16T20:20:54.887Z,70.03
2018-05-16T20:23:58.172Z,70.30
2018-05-16T20:27:01.618Z,70.98
2018-05-16T20:30:05.809Z,71.03
2018-05-16T20:33:09.157Z,71.11
2018-05-16T20:36:13.805Z,71.61
2018-05-16T20:39:17.153Z,72.11
2018-05-16T20:42:20.726Z,72.25
2018-05-16T20:45:24.124Z,72.73
2018-05-16T20:48:27.386Z,72.74
2018-05-16T20:51:30.678Z,73.14
2018-05-16T20:54:34.049Z,73.07
2018-05-16T20:57:37.429Z,73.34
2018-05-16T21:00:40.768Z,73.67
2018-05-16T21:03:44.111Z,74.23
2018-05-16T21:06:47.463Z,75.14
2018-05-16T21:09:50.844Z,75.01
2018-05-16T21:12:55.042Z,74.72
2018-05-16T21:15:58.438Z,75.33
2018-05-16T21:19:02.057Z,75.72
2018-05-16T21:22:06.521Z,76.06
2018-05-16T21:25:09.987Z,76.13
2018-05-16T21:28:13.506Z,76.28
2018-05-16T21:31:17.043Z,75.97
2018-05-16T21:34:20.598Z,75.92
2018-05-16T21:37:24.361Z,76.80
2018-05-16T21:40:27.908Z,76.66
2018-05-16T21:43:31.713Z,76.95
2018-05-16T21:46:35.062Z,77.22
2018-05-16T21:49:38.647Z,77.56
2018-05-16T21:52:42.262Z,77.70
2018-05-16T21:55:46.073Z,77.85
2018-05-16T21:58:49.446Z,77.92
2018-05-16T22:01:52.781Z,77.95
2018-05-16T22:04:56.111Z,78.34
2018-05-16T22:08:00.257Z,78.66
2018-05-16T22:11:04.033Z,78.82
2018-05-16T22:14:07.381Z,79.02
2018-05-16T22:17:10.731Z,79.48
2018-05-16T22:20:14.027Z,79.99
2018-05-16T22:23:17.391Z,80.09
2018-05-16T22:26:21.482Z,79.59
2018-05-16T22:29:25.429Z,79.59
2018-05-16T22:32:35.061Z,79.68
2018-05-16T22:35:44.775Z,79.94
2018-05-16T22:38:53.631Z,80.05
2018-05-16T22:42:03.331Z,79.79
2018-05-16T22:48:47.402Z,79.46
2018-05-16T22:51:50.812Z,79.65
2018-05-16T22:54:54.153Z,79.87
2018-05-16T22:57:58.277Z,79.79
2018-05-16T23:01:01.572Z,79.84
2018-05-16T23:04:04.933Z,79.98
2018-05-16T23:07:08.265Z,80.51
2018-05-16T23:10:11.622Z,80.77
2018-05-16T23:13:14.977Z,80.70
2018-05-16T23:16:18.315Z,80.78
2018-05-16T23:19:21.645Z,80.62
2018-05-16T23:22:25.823Z,80.74
2018-05-16T23:25:29.126Z,80.67
2018-05-16T23:28:33.330Z,80.41
2018-05-16T23:31:36.734Z,80.61
2018-05-16T23:34:40.141Z,80.64
2018-05-16T23:37:43.537Z,80.67
2018-05-16T23:40:46.906Z,80.64
2018-05-16T23:43:50.247Z,80.91
2018-05-16T23:46:54.458Z,81.01
2018-05-16T23:49:58.563Z,81.02
2018-05-16T23:53:01.982Z,80.75
2018-05-16T23:56:06.062Z,81.02
2018-05-16T23:59:09.402Z,81.54
